• Join FlightAware (Why Join?)
  • Login
  • US Flag 
04:02AM EST


 

Airport Tracker/Info


-or-


 

Live Flight TrackerFlight Track Log ✈ UAL86 ✈ 17-Apr-2014 ✈ KEWR - ZSPD / PVG

Flight Track Log - Related Links

Times and Time Zones

All times are in EDT time to prevent confusion due to time zone crossing. See the UAL86 flight status page for this flight to view local times or setup timezone preferences in your user account.

Time Position Orientation Groundspeed Altitude Reporting Facility
EDT Latitude Longitude Course Direction KTS MPH feet Rate Location/Type
11:13AM 40.7192 -74.1456 25° Northeast 179 206 31,000  Level Boston Center
11:14AM 40.7647 -74.1181 25° Northeast 190 219 3,200 -13,131 Descending Boston Center
11:15AM 40.8194 -74.0817 27° Northeast 212 244 4,300 1,561 Climbing Boston Center
11:16AM 40.8772 -74.0203 39° Northeast 258 297 6,400 2,195 Climbing Boston Center
11:17AM 40.9472 -73.9378 42° Northeast 278 320 8,800 1,951 Climbing Boston Center
11:18AM 41.0089 -73.8633 42° Northeast 295 339 10,400 1,220 Climbing Boston Center
11:19AM 41.0872 -73.7733 41° Northeast 352 405 11,300 1,268 Climbing Boston Center
11:20AM 41.1683 -73.6794 41° Northeast 384 442 13,000 1,610 Climbing Boston Center
11:21AM 41.2503 -73.5828 42° Northeast 391 450 14,600 1,463 Climbing Boston Center
11:22AM 41.3444 -73.4736 41° Northeast 414 476 16,000 1,366 Climbing Boston Center
11:23AM 41.4339 -73.3678 42° Northeast 431 496 17,400 1,073 Climbing Boston Center
11:24AM 41.5258 -73.2539 43° Northeast 437 503 18,200 968 Climbing Boston Center
11:25AM 41.6075 -73.1469 44° Northeast 450 518 19,400 1,123 Climbing Boston Center
11:31AM 42.3856 -73.2365 353° North 475 547 26,100 1,025 Climbing FlightAware ADS-B
11:33AM 42.6515 -73.2342 21° North 509 586 27,600 739 Climbing FlightAware ADS-B
11:34AM 42.8349 -73.1389 21° North 518 596 28,600 750 Climbing FlightAware ADS-B
11:35AM 42.9155 -73.0968 21° North 522 601 29,100 636 Climbing FlightAware ADS-B
11:35AM 42.9850 -73.0610 21° North 526 605 29,300 545 Climbing FlightAware ADS-B
11:36AM 42.9247 -73.0919 21° North 523 602 29,600 876 Climbing FlightAware ADS-B
11:37AM 43.1870 -72.9540 21° North 526 605 30,600 857 Climbing FlightAware ADS-B
11:37AM 43.2660 -72.9120 21° North 524 603 31,000 293 Climbing FlightAware ADS-B
11:38AM 43.3740 -72.8560 21° North 524 603 31,000  Level FlightAware ADS-B
11:39AM 43.5020 -72.7880 21° North 526 605 31,000  Level FlightAware ADS-B
11:40AM 43.6180 -72.7250 21° North 526 605 31,000  Level FlightAware ADS-B
11:41AM 43.6910 -72.6870 21° North 526 605 31,000  Level FlightAware ADS-B
11:41AM 43.7760 -72.6410 21° North 527 606 31,000  Level FlightAware ADS-B
11:42AM 43.8370 -72.6080 21° North 527 606 31,000  Level FlightAware ADS-B
11:43AM 43.9980 -72.5210 21° North 528 608 31,000  Level FlightAware ADS-B
11:44AM 44.0930 -72.4690 21° North 527 606 31,000  Level FlightAware ADS-B
11:44AM 44.1496 -72.4385 21° North 525 604 31,000  Level FlightAware ADS-B (KBTV)
11:44AM 44.1610 -72.4320 21° North 526 605 31,000  Level FlightAware ADS-B
11:45AM 44.2290 -72.3950 21° North 526 605 31,000  Level FlightAware ADS-B
11:45AM 44.3100 -72.3510 21° North 526 605 31,000  Level FlightAware ADS-B
11:46AM 44.3920 -72.3030 24° Northeast 528 608 31,000  Level FlightAware ADS-B
11:46AM 44.4560 -72.2600 26° Northeast 530 610 31,000  Level FlightAware ADS-B
11:47AM 44.5210 -72.2130 27° Northeast 531 611 31,000  Level FlightAware ADS-B
11:47AM 44.5800 -72.1710 27° Northeast 533 613 31,000  Level FlightAware ADS-B
11:48AM 44.6810 -72.0960 28° Northeast 534 615 31,000  Level FlightAware ADS-B
11:48AM 44.7480 -72.0460 28° Northeast 534 615 31,000  Level FlightAware ADS-B
11:49AM 44.8120 -71.9980 28° Northeast 533 613 31,000  Level FlightAware ADS-B
11:50AM 44.9020 -71.9290 28° Northeast 534 615 31,000  Level FlightAware ADS-B
11:50AM 44.9880 -71.8640 28° Northeast 533 613 31,000  Level FlightAware ADS-B
11:51AM 45.0560 -71.8120 28° Northeast 533 613 31,000  Level FlightAware ADS-B
11:51AM 45.1330 -71.7530 28° Northeast 532 612 31,000  Level FlightAware ADS-B
11:52AM 45.1601 -71.7325 28° Northeast 531 611 31,000  Level FlightAware ADS-B
11:52AM 45.2525 -71.6617 29° Northeast 533 613 31,000  Level FlightAware ADS-B
11:53AM 45.3120 -71.6160 28° Northeast 533 613 31,000  Level FlightAware ADS-B
11:53AM 45.3371 -71.5967 29° Northeast 533 613 31,000  Level FlightAware ADS-B
11:53AM 45.3690 -71.5720 28° Northeast 533 613 31,000  Level FlightAware ADS-B
11:54AM 45.4237 -71.5300 29° Northeast 534 615 31,000  Level FlightAware ADS-B
11:54AM 45.4942 -71.4755 29° Northeast 534 615 31,000  Level FlightAware ADS-B
11:55AM 45.5589 -71.4252 29° Northeast 534 615 31,000  Level FlightAware ADS-B
11:55AM 45.6319 -71.3685 29° Northeast 534 615 31,000  Level FlightAware ADS-B
11:56AM 45.6977 -71.3171 29° Northeast 534 615 31,000  Level FlightAware ADS-B
11:57AM 45.7999 -71.2371 29° Northeast 534 615 31,000  Level FlightAware ADS-B
11:57AM 45.8812 -71.1731 29° Northeast 534 615 31,000  Level FlightAware ADS-B
11:58AM 45.9548 -71.1150 29° Northeast 535 616 31,000  Level FlightAware ADS-B
11:58AM 46.0379 -71.0492 29° Northeast 534 615 31,000  Level FlightAware ADS-B
11:59AM 46.1141 -70.9888 29° Northeast 534 615 31,000  Level FlightAware ADS-B
12:00PM 46.2008 -70.9199 29° Northeast 534 615 31,000  Level FlightAware ADS-B
12:00PM 46.2711 -70.8636 29° Northeast 534 615 31,000  Level FlightAware ADS-B
12:01PM 46.3563 -70.7953 29° Northeast 535 616 31,000  Level FlightAware ADS-B
12:02PM 46.4471 -70.7222 29° Northeast 534 615 31,000  Level FlightAware ADS-B
12:02PM 46.5082 -70.6730 29° Northeast 532 612 31,000  Level FlightAware ADS-B
12:03PM 46.5761 -70.6181 29° Northeast 533 613 31,000  Level FlightAware ADS-B
12:03PM 46.6637 -70.5468 29° Northeast 533 613 31,000  Level FlightAware ADS-B
12:04PM 46.7482 -70.4779 29° Northeast 533 613 31,000  Level FlightAware ADS-B
12:04PM 46.8222 -70.4174 29° Northeast 534 615 31,000  Level FlightAware ADS-B
12:05PM 46.8874 -70.3640 29° Northeast 534 615 31,000  Level FlightAware ADS-B
12:06PM 46.9701 -70.2959 30° Northeast 534 615 31,000  Level FlightAware ADS-B
12:06PM 47.0537 -70.2269 30° Northeast 534 615 31,000  Level FlightAware ADS-B
12:07PM 47.1151 -70.1759 30° Northeast 535 616 31,000  Level FlightAware ADS-B
12:07PM 47.1820 -70.1203 30° Northeast 535 616 31,000  Level FlightAware ADS-B
12:08PM 47.2420 -70.0704 30° Northeast 535 616 31,000  Level FlightAware ADS-B
12:08PM 47.3101 -70.0135 30° Northeast 535 616 31,000  Level FlightAware ADS-B
12:09PM 47.3758 -69.9584 30° Northeast 535 616 31,000  Level FlightAware ADS-B
12:09PM 47.4698 -69.8794 30° Northeast 538 619 31,000  Level FlightAware ADS-B
12:10PM 47.6012 -69.7681 30° Northeast 538 619 31,000  Level FlightAware ADS-B
12:11PM 47.6664 -69.7128 30° Northeast 538 619 31,000  Level FlightAware ADS-B
12:12PM 47.7681 -69.6263 30° Northeast 538 619 31,000  Level FlightAware ADS-B
12:12PM 47.8336 -69.5701 30° Northeast 537 618 31,000  Level FlightAware ADS-B
12:13PM 47.9279 -69.4894 30° Northeast 539 620 31,000  Level FlightAware ADS-B
12:14PM 47.9930 -69.4333 30° Northeast 540 621 31,000  Level FlightAware ADS-B
12:14PM 48.0833 -69.3500 30° Northeast 540 621 31,000  Level Gander Center
12:15PM 48.2167 -69.2333 30° Northeast 540 621 31,000  Level Gander Center
12:16PM 48.3333 -69.1333 30° Northeast 540 621 31,000  Level Gander Center
12:18PM 48.5000 -69.0000 28° Northeast 540 621 31,000  Level Moncton Center
12:18PM 48.5833 -68.8667 47° Northeast 530 610 31,000  Level Montreal Center
12:19PM 48.7167 -68.7500 30° Northeast 530 610 31,000  Level Montreal Center
12:20PM 48.8333 -68.6333 33° Northeast 530 610 31,000  Level Montreal Center
12:21PM 48.9667 -68.5333 26° Northeast 530 610 31,000  Level Montreal Center
12:22PM 49.1000 -68.4167 30° Northeast 530 610 31,000  Level Montreal Center
12:23PM 49.2167 -68.2833 37° Northeast 530 610 31,000  Level Montreal Center
12:24PM 49.3500 -68.1833 26° Northeast 530 610 31,000  Level Montreal Center
12:25PM 49.4833 -68.0667 30° Northeast 520 598 31,000  Level Montreal Center
12:26PM 49.6000 -67.9333 37° Northeast 530 610 31,000  Level Montreal Center
12:27PM 49.7333 -67.8333 26° Northeast 530 610 31,000  Level Montreal Center
12:28PM 49.8500 -67.7167 33° Northeast 530 610 31,000  Level Montreal Center
12:29PM 49.9667 -67.5833 36° Northeast 520 598 31,000  Level Montreal Center
12:30PM 50.1167 -67.4833 23° Northeast 530 610 31,000  Level Montreal Center
12:31PM 50.2167 -67.3500 40° Northeast 520 598 31,000  Level Montreal Center
12:32PM 50.3667 -67.2167 30° Northeast 520 598 31,000  Level Montreal Center
12:33PM 50.4667 -67.1167 32° Northeast 520 598 31,000 50 Level Montreal Center
12:34PM 50.6000 -66.9833 32° Northeast 520 598 31,100 200 Climbing Montreal Center
12:35PM 50.7167 -66.8667 32° Northeast 520 598 31,400 300 Climbing Montreal Center
12:36PM 50.8500 -66.7500 29° Northeast 530 610 31,700 300 Climbing Montreal Center
12:37PM 50.9667 -66.6167 36° Northeast 520 598 32,000 300 Climbing Montreal Center
12:38PM 51.1000 -66.4833 32° Northeast 520 598 32,300 250 Climbing Montreal Center
12:39PM 51.2167 -66.3833 28° Northeast 520 598 32,500 250 Climbing Montreal Center
12:40PM 51.3500 -66.2500 32° Northeast 520 598 32,800 250 Climbing Montreal Center
12:41PM 51.4667 -66.1000 39° Northeast 530 610 33,000 100 Climbing Montreal Center
12:42PM 51.6000 -65.9667 32° Northeast 520 598 33,000  Level Montreal Center
12:43PM 51.7000 -65.8667 32° Northeast 520 598 33,000  Level Montreal Center
12:45PM 51.8833 -65.7333 24° Northeast 530 610 33,000  Level Moncton Center
12:46PM 52.0000 -65.6167 32° Northeast 530 610 33,000  Level Moncton Center
12:47PM 52.1167 -65.4833 35° Northeast 520 598 33,000  Level Moncton Center
12:48PM 52.2333 -65.3500 35° Northeast 520 598 33,000  Level Moncton Center
12:49PM 52.3667 -65.2167 31° Northeast 520 598 33,000  Level Moncton Center
12:50PM 52.4833 -65.0833 35° Northeast 520 598 33,000  Level Moncton Center
12:50PM 52.5667 -64.9333 48° Northeast 520 598 33,000  Level Montreal Center
12:51PM 52.7000 -64.8167 28° Northeast 520 598 33,000  Level Montreal Center
12:52PM 52.8000 -64.6833 39° Northeast 510 587 33,000  Level Montreal Center
12:53PM 52.9333 -64.5333 34° Northeast 510 587 33,000  Level Montreal Center
12:54PM 53.0500 -64.4167 31° Northeast 510 587 33,000  Level Montreal Center
12:55PM 53.1667 -64.2667 38° Northeast 520 598 33,000  Level Montreal Center
12:56PM 53.3000 -64.1500 28° Northeast 510 587 33,000  Level Montreal Center
12:57PM 53.4167 -64.0000 37° Northeast 520 598 33,000  Level Montreal Center
12:58PM 53.5333 -63.8500 37° Northeast 510 587 33,000  Level Montreal Center
12:59PM 53.6333 -63.7333 35° Northeast 510 587 33,000  Level Montreal Center
01:01PM 53.7833 -63.6000 28° Northeast 510 587 33,000  Level Moncton Center
01:02PM 53.9000 -63.4667 34° Northeast 510 587 33,000  Level Moncton Center
01:02PM 53.9833 -63.3167 47° Northeast 510 587 33,000  Level Montreal Center
01:03PM 54.1167 -63.1833 30° Northeast 510 587 33,000  Level Montreal Center
01:04PM 54.2333 -63.0333 37° Northeast 510 587 33,000  Level Montreal Center
01:05PM 54.3333 -62.9167 34° Northeast 510 587 33,000  Level Montreal Center
01:06PM 54.4500 -62.7500 40° Northeast 510 587 33,000  Level Montreal Center
01:07PM 54.5833 -62.6333 27° Northeast 510 587 33,000  Level Montreal Center
01:08PM 54.7000 -62.4667 40° Northeast 500 575 33,000  Level Montreal Center
01:09PM 54.8333 -62.3500 27° Northeast 510 587 33,000  Level Gander Center
01:10PM 54.9333 -62.2167 37° Northeast 510 587 33,000  Level Gander Center
01:11PM 55.0500 -62.0667 36° Northeast 510 587 33,000  Level Gander Center
01:12PM 55.1667 -61.9333 33° Northeast 510 587 33,000  Level Gander Center
01:13PM 55.2833 -61.7833 36° Northeast 510 587 33,000  Level Gander Center
01:14PM 55.4000 -61.6333 36° Northeast 510 587 33,000  Level Gander Center
01:15PM 55.5000 -61.4833 40° Northeast 510 587 33,000  Level Gander Center
01:16PM 55.6167 -61.3333 36° Northeast 510 587 33,000  Level Gander Center
01:17PM 55.7333 -61.2000 33° Northeast 510 587 33,000  Level Gander Center
01:18PM 55.8500 -61.0500 36° Northeast 500 575 33,000  Level Gander Center
01:19PM 55.9667 -60.9000 36° Northeast 510 587 33,000  Level Gander Center
01:20PM 56.0667 -60.7500 40° Northeast 510 587 33,000  Level Gander Center
01:21PM 56.1833 -60.6000 36° Northeast 510 587 33,000  Level Gander Center
01:22PM 56.3000 -60.4333 38° Northeast 510 587 33,000  Level Gander Center
01:23PM 56.4167 -60.2833 35° Northeast 510 587 33,000  Level Gander Center
01:25PM 56.6500 -59.9500 38° Northeast 510 587 33,000  Level Gander Center
01:26PM 56.7500 -59.7833 42° Northeast 520 598 33,000 -150 Level Gander Center
01:27PM 56.8667 -59.6333 35° Northeast 510 587 32,700 -500 Descending Gander Center
01:28PM 56.9500 -59.5000 41° Northeast 500 575 32,000 -700 Descending Gander Center
01:29PM 57.0500 -59.3500 39° Northeast 500 575 31,300 -500 Descending Gander Center
01:30PM 57.1667 -59.1833 38° Northeast 500 575 31,000 -150 Descending Gander Center
01:31PM 57.2833 -59.0667 28° Northeast 500 575 31,000  Level Gander Center
01:32PM 57.4167 -58.9667 22° Northeast 470 541 31,000  Level Gander Center
01:33PM 57.5500 -58.8500 25° Northeast 500 575 31,000  Level Gander Center
01:34PM 57.6667 -58.7333 28° Northeast 500 575 31,000  Level Gander Center
01:35PM 57.7833 -58.6167 28° Northeast 500 575 31,000  Level Gander Center
01:36PM 57.9167 -58.4833 28° Northeast 530 610 31,000  Level Gander Center
01:37PM 58.0500 -58.3833 22° Northeast 490 564 31,000  Level Gander Center
01:38PM 58.1667 -58.2500 31° Northeast 490 564 31,000  Level Gander Center
01:39PM 58.3000 -58.1500 22° Northeast 490 564 31,000  Level Gander Center
01:40PM 58.4167 -58.0333 28° Northeast 490 564 31,000  Level Gander Center
01:41PM 58.5500 -57.9000 28° Northeast 500 575 31,000  Level Gander Center
01:42PM 58.6500 -57.7833 31° Northeast 500 575 31,000  Level Gander Center
01:43PM 58.7833 -57.6833 21° North 500 575 31,000  Level Gander Center
01:44PM 58.9000 -57.5333 34° Northeast 500 575 31,000  Level Gander Center
01:45PM 59.0333 -57.4333 21° North 500 575 31,000  Level Gander Center
01:46PM 59.1667 -57.3167 24° Northeast 500 575 31,000  Level Gander Center
01:47PM 59.2667 -57.1833 34° Northeast 500 575 31,000  Level Gander Center
01:48PM 59.4000 -57.0667 24° Northeast 500 575 31,000  Level Gander Center
01:49PM 59.5333 -56.9167 30° Northeast 500 575 31,000  Level Gander Center
01:51PM 59.7667 -56.6167 33° Northeast 500 575 31,000  Level Gander Center
01:52PM 59.8833 -56.5000 27° Northeast 500 575 31,000  Level Gander Center
01:54PM 60.1333 -56.2333 28° Northeast 490 564 31,000  Level Gander Center
01:55PM 60.2500 -56.1167 26° Northeast 490 564 31,000  Level Gander Center
01:57PM 60.5000 -55.8500 28° Northeast 510 587 31,000  Level Gander Center
01:58PM 60.6167 -55.7167 29° Northeast 510 587 31,000  Level Gander Center
01:59PM 60.7500 -55.5667 29° Northeast 510 587 31,000  Level Gander Center
02:00PM 60.8833 -55.4333 26° Northeast 510 587 31,000  Level Gander Center
02:01PM 60.9833 -55.2833 36° Northeast 510 587 31,000  Level Gander Center
02:02PM 61.1167 -55.1500 26° Northeast 510 587 31,000  Level Gander Center
02:03PM 61.2333 -55.0000 32° Northeast 510 587 31,000  Level Gander Center
02:04PM 61.3500 -54.8667 29° Northeast 510 587 31,000  Level Gander Center
02:05PM 61.4833 -54.7000 31° Northeast 510 587 31,000  Level Gander Center
02:06PM 61.6000 -54.5667 29° Northeast 510 587 31,000  Level Gander Center
02:07PM 61.7333 -54.4000 31° Northeast 510 587 31,000  Level Gander Center
02:08PM 61.8500 -54.2667 28° Northeast 510 587 31,000  Level Gander Center
02:09PM 61.9667 -54.1167 31° Northeast 510 587 31,000  Level Gander Center
02:10PM 62.1000 -53.9667 28° Northeast 510 587 31,000  Level Gander Center
02:11PM 62.2167 -53.8000 34° Northeast 520 598 31,000  Level Gander Center
02:12PM 62.3500 -53.6667 25° Northeast 520 598 31,000  Level Gander Center
02:13PM 62.4667 -53.4833 36° Northeast 520 598 31,000  Level Gander Center
02:14PM 62.6000 -53.3500 25° Northeast 520 598 31,000  Level Gander Center
02:15PM 62.7167 -53.1667 36° Northeast 520 598 31,000  Level Gander Center
02:16PM 62.8333 -53.0333 28° Northeast 520 598 31,000  Level Gander Center
02:17PM 62.9500 -52.8500 36° Northeast 520 598 31,000  Level Gander Center
02:18PM 63.0667 -52.7167 27° Northeast 520 598 31,000  Level Gander Center
02:20PM 63.3167 -52.3833 31° Northeast 520 598 31,000  Level Gander Center
02:21PM 63.4500 -52.2000 32° Northeast 520 598 31,000  Level Gander Center
02:22PM 63.5667 -52.0500 30° Northeast 520 598 31,000  Level Gander Center
02:23PM 63.6833 -51.8500 37° Northeast 520 598 31,000  Level Gander Center
02:24PM 63.8167 -51.6667 31° Northeast 520 598 31,000  Level Gander Center
02:25PM 63.9333 -51.5167 29° Northeast 520 598 31,000  Level Gander Center
02:26PM 64.0500 -51.3167 37° Northeast 520 598 31,000  Level Gander Center
02:27PM 64.1833 -51.1667 26° Northeast 520 598 31,000  Level Gander Center
02:28PM 64.3000 -50.9667 37° Northeast 530 610 31,000  Level Gander Center
02:29PM 64.4000 -50.8167 33° Northeast 530 610 31,000 14 Level Gander Center
02:31PM 64.5297 -50.6437 30° Northeast  Level FlightAware Approximate
02:38PM 65.3383 -49.4554 34° Northeast  Level FlightAware Approximate
02:39PM 65.4506 -49.2709 34° Northeast  Level FlightAware Approximate
02:40PM 65.5635 -49.0882 34° Northeast  Level FlightAware Approximate
02:41PM 65.6767 -48.9053 34° Northeast  Level FlightAware Approximate
02:42PM 65.7896 -48.7209 34° Northeast  Level FlightAware Approximate
02:43PM 65.9023 -48.5348 34° Northeast  Level FlightAware Approximate
02:44PM 66.0148 -48.3470 34° Northeast  Level FlightAware Approximate
02:45PM 66.1270 -48.1576 34° Northeast  Level FlightAware Approximate
02:46PM 66.2391 -47.9665 34° Northeast  Level FlightAware Approximate
02:47PM 66.3508 -47.7737 35° Northeast  Level FlightAware Approximate
02:48PM 66.4624 -47.5792 35° Northeast  Level FlightAware Approximate
02:49PM 66.5736 -47.3829 35° Northeast  Level FlightAware Approximate
02:50PM 66.6847 -47.1849 35° Northeast  Level FlightAware Approximate
02:51PM 66.7955 -46.9851 35° Northeast  Level FlightAware Approximate
02:52PM 66.9067 -46.7823 36° Northeast  Level FlightAware Approximate
02:53PM 67.0176 -46.5777 36° Northeast  Level FlightAware Approximate
02:54PM 67.1283 -46.3712 36° Northeast  Level FlightAware Approximate
02:55PM 67.2387 -46.1628 36° Northeast  Level FlightAware Approximate
02:56PM 67.3489 -45.9525 36° Northeast  Level FlightAware Approximate
02:57PM 67.4587 -45.7403 36° Northeast  Level FlightAware Approximate
02:58PM 67.5683 -45.5261 37° Northeast  Level FlightAware Approximate
02:59PM 67.6776 -45.3099 37° Northeast  Level FlightAware Approximate
03:00PM 67.7866 -45.0917 37° Northeast  Level FlightAware Approximate
03:01PM 67.8953 -44.8714 37° Northeast  Level FlightAware Approximate
03:02PM 68.0038 -44.6491 37° Northeast  Level FlightAware Approximate
03:03PM 68.1119 -44.4247 38° Northeast  Level FlightAware Approximate
03:04PM 68.2197 -44.1982 38° Northeast  Level FlightAware Approximate
03:05PM 68.3272 -43.9695 38° Northeast  Level FlightAware Approximate
03:06PM 68.4344 -43.7387 38° Northeast  Level FlightAware Approximate
03:07PM 68.5413 -43.5056 39° Northeast  Level FlightAware Approximate
03:08PM 68.6478 -43.2704 39° Northeast  Level FlightAware Approximate
03:09PM 68.7540 -43.0329 39° Northeast  Level FlightAware Approximate
03:10PM 68.8599 -42.7932 39° Northeast  Level FlightAware Approximate
03:11PM 68.9654 -42.5511 39° Northeast  Level FlightAware Approximate
03:12PM 69.0706 -42.3067 40° Northeast  Level FlightAware Approximate
03:13PM 69.1754 -42.0600 40° Northeast  Level FlightAware Approximate
03:14PM 69.2799 -41.8109 40° Northeast  Level FlightAware Approximate
03:15PM 69.3840 -41.5593 40° Northeast  Level FlightAware Approximate
03:16PM 69.4877 -41.3054 41° Northeast  Level FlightAware Approximate
03:17PM 69.5911 -41.0489 41° Northeast  Level FlightAware Approximate
03:18PM 69.6941 -40.7900 41° Northeast  Level FlightAware Approximate
03:19PM 69.7962 -40.5298 41° Northeast  Level FlightAware Approximate
03:20PM 69.8980 -40.2671 42° Northeast  Level FlightAware Approximate
03:21PM 69.9993 -40.0018 42° Northeast  Level FlightAware Approximate
03:22PM 70.1173 -39.8026 30° Northeast  Level FlightAware Approximate
03:23PM 70.2352 -39.6017 30° Northeast  Level FlightAware Approximate
03:24PM 70.3529 -39.3984 30° Northeast  Level FlightAware Approximate
03:25PM 70.4703 -39.1928 30° Northeast  Level FlightAware Approximate
03:26PM 70.5875 -38.9848 31° Northeast  Level FlightAware Approximate
03:27PM 70.7045 -38.7744 31° Northeast  Level FlightAware Approximate
03:28PM 70.8212 -38.5615 31° Northeast  Level FlightAware Approximate
03:29PM 70.9377 -38.3461 31° Northeast  Level FlightAware Approximate
03:30PM 71.0539 -38.1281 31° Northeast  Level FlightAware Approximate
03:31PM 71.1699 -37.9076 32° Northeast  Level FlightAware Approximate
03:32PM 71.2856 -37.6844 32° Northeast  Level FlightAware Approximate
03:33PM 71.4010 -37.4586 32° Northeast  Level FlightAware Approximate
03:34PM 71.5162 -37.2300 32° Northeast  Level FlightAware Approximate
03:35PM 71.6311 -36.9987 32° Northeast  Level FlightAware Approximate
03:36PM 71.7457 -36.7645 33° Northeast  Level FlightAware Approximate
03:37PM 71.8600 -36.5276 33° Northeast  Level FlightAware Approximate
03:38PM 71.9740 -36.2877 33° Northeast  Level FlightAware Approximate
03:39PM 72.0877 -36.0448 33° Northeast  Level FlightAware Approximate
03:40PM 72.2012 -35.7990 33° Northeast  Level FlightAware Approximate
03:41PM 72.3143 -35.5501 34° Northeast  Level FlightAware Approximate
03:42PM 72.4270 -35.2982 34° Northeast  Level FlightAware Approximate
03:43PM 72.5395 -35.0431 34° Northeast  Level FlightAware Approximate
03:44PM 72.6517 -34.7847 34° Northeast  Level FlightAware Approximate
03:45PM 72.7635 -34.5232 35° Northeast  Level FlightAware Approximate
03:46PM 72.8749 -34.2583 35° Northeast  Level FlightAware Approximate
03:47PM 72.9860 -33.9901 35° Northeast  Level FlightAware Approximate
03:48PM 73.0968 -33.7184 35° Northeast  Level FlightAware Approximate
03:49PM 73.2072 -33.4433 36° Northeast  Level FlightAware Approximate
03:50PM 73.3172 -33.1646 36° Northeast  Level FlightAware Approximate
03:51PM 73.4268 -32.8824 36° Northeast  Level FlightAware Approximate
03:52PM 73.5361 -32.5965 37° Northeast  Level FlightAware Approximate
03:53PM 73.6450 -32.3069 37° Northeast  Level FlightAware Approximate
03:54PM 73.7534 -32.0135 37° Northeast  Level FlightAware Approximate
03:55PM 73.8615 -31.7164 37° Northeast  Level FlightAware Approximate
03:56PM 73.9691 -31.4153 38° Northeast  Level FlightAware Approximate
03:57PM 74.0763 -31.1102 38° Northeast  Level FlightAware Approximate
03:58PM 74.1831 -30.8012 38° Northeast  Level FlightAware Approximate
03:59PM 74.2895 -30.4880 39° Northeast  Level FlightAware Approximate
04:00PM 74.3953 -30.1707 39° Northeast  Level FlightAware Approximate
04:01PM 74.5008 -29.8492 39° Northeast  Level FlightAware Approximate
04:02PM 74.6057 -29.5234 39° Northeast  Level FlightAware Approximate
04:03PM 74.7102 -29.1933 40° Northeast  Level FlightAware Approximate
04:04PM 74.8142 -28.8587 40° Northeast  Level FlightAware Approximate
04:05PM 74.9176 -28.5196 40° Northeast  Level FlightAware Approximate
04:06PM 75.0206 -28.1760 41° Northeast  Level FlightAware Approximate
04:07PM 75.1231 -27.8277 41° Northeast  Level FlightAware Approximate
04:08PM 75.2250 -27.4748 41° Northeast  Level FlightAware Approximate
04:09PM 75.3264 -27.1170 42° Northeast  Level FlightAware Approximate
04:10PM 75.4272 -26.7544 42° Northeast  Level FlightAware Approximate
04:11PM 75.5274 -26.3869 42° Northeast  Level FlightAware Approximate
04:12PM 75.6271 -26.0143 43° Northeast  Level FlightAware Approximate
04:13PM 75.7262 -25.6367 43° Northeast  Level FlightAware Approximate
04:14PM 75.8252 -25.2516 43° Northeast  Level FlightAware Approximate
04:15PM 75.9237 -24.8613 44° Northeast  Level FlightAware Approximate
04:16PM 76.0215 -24.4656 44° Northeast  Level FlightAware Approximate
04:17PM 76.1186 -24.0644 45° Northeast  Level FlightAware Approximate
04:18PM 76.2151 -23.6577 45° Northeast  Level FlightAware Approximate
04:19PM 76.3105 -23.2474 45° Northeast  Level FlightAware Approximate
04:20PM 76.4052 -22.8314 46° Northeast  Level FlightAware Approximate
04:21PM 76.4992 -22.4098 46° Northeast  Level FlightAware Approximate
04:22PM 76.5924 -21.9823 47° Northeast  Level FlightAware Approximate
04:23PM 76.6850 -21.5491 47° Northeast  Level FlightAware Approximate
04:24PM 76.7767 -21.1098 47° Northeast  Level FlightAware Approximate
04:25PM 76.8678 -20.6646 48° Northeast  Level FlightAware Approximate
04:26PM 76.9580 -20.2133 48° Northeast  Level FlightAware Approximate
04:27PM 77.0417 -19.7358 55° Northeast  Level FlightAware Approximate
04:28PM 77.1194 -19.2347 55° Northeast  Level FlightAware Approximate
04:29PM 77.1962 -18.7277 56° Northeast  Level FlightAware Approximate
04:30PM 77.2719 -18.2147 56° Northeast  Level FlightAware Approximate
04:31PM 77.3467 -17.6957 56° Northeast  Level FlightAware Approximate
04:32PM 77.4204 -17.1707 57° Northeast  Level FlightAware Approximate
04:33PM 77.4931 -16.6396 58° Northeast  Level FlightAware Approximate
04:34PM 77.5648 -16.1025 58° Northeast  Level FlightAware Approximate
04:35PM 77.6354 -15.5592 59° Northeast  Level FlightAware Approximate
04:36PM 77.7048 -15.0099 59° Northeast  Level FlightAware Approximate
04:37PM 77.7732 -14.4545 60° Northeast  Level FlightAware Approximate
04:38PM 77.8405 -13.8930 60° Northeast  Level FlightAware Approximate
04:39PM 77.9066 -13.3254 61° Northeast  Level FlightAware Approximate
04:40PM 77.9715 -12.7517 61° Northeast  Level FlightAware Approximate
04:41PM 78.0353 -12.1719 62° Northeast  Level FlightAware Approximate
04:42PM 78.0979 -11.5860 62° Northeast  Level FlightAware Approximate
04:43PM 78.1592 -10.9941 63° Northeast  Level FlightAware Approximate
04:44PM 78.2193 -10.3962 64° Northeast  Level FlightAware Approximate
04:45PM 78.2782 -9.7923 64° Northeast  Level FlightAware Approximate
04:46PM 78.3357 -9.1825 65° Northeast  Level FlightAware Approximate
04:47PM 78.3920 -8.5668 65° Northeast  Level FlightAware Approximate
04:48PM 78.4469 -7.9452 66° East  Level FlightAware Approximate
04:49PM 78.5005 -7.3179 67° East  Level FlightAware Approximate
04:50PM 78.5528 -6.6848 67° East  Level FlightAware Approximate
04:51PM 78.6037 -6.0453 68° East  Level FlightAware Approximate
04:52PM 78.6533 -5.4002 68° East  Level FlightAware Approximate
04:53PM 78.7014 -4.7496 69° East  Level FlightAware Approximate
04:54PM 78.7481 -4.0936 70° East  Level FlightAware Approximate
04:55PM 78.7934 -3.4323 70° East  Level FlightAware Approximate
04:56PM 78.8372 -2.7657 71° East  Level FlightAware Approximate
04:57PM 78.8795 -2.0941 72° East  Level FlightAware Approximate
04:58PM 78.9203 -1.4175 72° East  Level FlightAware Approximate
04:59PM 78.9596 -0.7361 73° East  Level FlightAware Approximate
05:00PM 78.9973 -0.0499 74° East  Level FlightAware Approximate
05:01PM 79.0552 0.5987 64° Northeast  Level FlightAware Approximate
05:02PM 79.1133 1.2508 64° Northeast  Level FlightAware Approximate
05:03PM 79.1701 1.9098 65° Northeast  Level FlightAware Approximate
05:04PM 79.2254 2.5756 66° East  Level FlightAware Approximate
05:05PM 79.2794 3.2480 66° East  Level FlightAware Approximate
05:06PM 79.3318 3.9271 67° East  Level FlightAware Approximate
05:07PM 79.3828 4.6127 68° East  Level FlightAware Approximate
05:08PM 79.4323 5.3048 68° East  Level FlightAware Approximate
05:09PM 79.4803 6.0032 69° East  Level FlightAware Approximate
05:10PM 79.5267 6.7078 70° East  Level FlightAware Approximate
05:11PM 79.5715 7.4185 70° East  Level FlightAware Approximate
05:12PM 79.6148 8.1352 71° East  Level FlightAware Approximate
05:13PM 79.6571 8.8566 72° East  Level FlightAware Approximate
05:14PM 79.6979 9.5836 72° East  Level FlightAware Approximate
05:15PM 79.7370 10.3163 73° East  Level FlightAware Approximate
05:16PM 79.7745 11.0543 74° East  Level FlightAware Approximate
05:17PM 79.8102 11.7977 74° East  Level FlightAware Approximate
05:18PM 79.8443 12.5461 75° East  Level FlightAware Approximate
05:19PM 79.8767 13.2993 76° East  Level FlightAware Approximate
05:20PM 79.9074 14.0572 77° East  Level FlightAware Approximate
05:21PM 79.9363 14.8195 77° East  Level FlightAware Approximate
05:22PM 79.9634 15.5861 78° East  Level FlightAware Approximate
05:23PM 79.9888 16.3566 79° East  Level FlightAware Approximate
05:24PM 80.0125 17.1309 80° East  Level FlightAware Approximate
05:25PM 80.0343 17.9087 80° East  Level FlightAware Approximate
05:26PM 80.0543 18.6897 81° East  Level FlightAware Approximate
05:27PM 80.0725 19.4737 82° East  Level FlightAware Approximate
05:28PM 80.0888 20.2604 83° East  Level FlightAware Approximate
05:29PM 80.1034 21.0495 84° East  Level FlightAware Approximate
05:30PM 80.1160 21.8408 84° East  Level FlightAware Approximate
05:31PM 80.1264 22.6341 85° East  Level FlightAware Approximate
05:32PM 80.1349 23.4290 86° East  Level FlightAware Approximate
05:33PM 80.1416 24.2250 87° East  Level FlightAware Approximate
05:34PM 80.1464 25.0220 88° East  Level FlightAware Approximate
05:35PM 80.1493 25.8196 88° East  Level FlightAware Approximate
05:36PM 80.1503 26.6175 89° East  Level FlightAware Approximate
05:37PM 80.1495 27.4154 90° East  Level FlightAware Approximate
05:38PM 80.1467 28.2130 91° East  Level FlightAware Approximate
05:39PM 80.1422 29.0091 92° East  Level FlightAware Approximate
05:40PM 80.1357 29.8043 92° East  Level FlightAware Approximate
05:41PM 80.1274 30.5984 93° East  Level FlightAware Approximate
05:42PM 80.1173 31.3909 94° East  Level FlightAware Approximate
05:43PM 80.1056 32.1819 95° East  Level FlightAware Approximate
05:44PM 80.0922 32.9691 95° East  Level FlightAware Approximate
05:45PM 80.0769 33.7541 96° East  Level FlightAware Approximate
05:46PM 80.0599 34.5365 97° East  Level FlightAware Approximate
05:47PM 80.0410 35.3161 98° East  Level FlightAware Approximate
05:48PM 80.0203 36.0926 98° East  Level FlightAware Approximate
05:49PM 79.9978 36.8658 99° East  Level FlightAware Approximate
05:50PM 79.9736 37.6355 100° East  Level FlightAware Approximate
05:51PM 79.9476 38.4014 101° East  Level FlightAware Approximate
05:52PM 79.9198 39.1632 101° East  Level FlightAware Approximate
05:53PM 79.8903 39.9207 102° East  Level FlightAware Approximate
05:54PM 79.8591 40.6738 103° East  Level FlightAware Approximate
05:55PM 79.8261 41.4221 104° East  Level FlightAware Approximate
05:56PM 79.7915 42.1656 104° East  Level FlightAware Approximate
05:57PM 79.7552 42.9039 105° East  Level FlightAware Approximate
05:58PM 79.7173 43.6370 106° East  Level FlightAware Approximate
05:59PM 79.6777 44.3647 107° East  Level FlightAware Approximate
06:00PM 79.6365 45.0867 107° East  Level FlightAware Approximate
06:01PM 79.5938 45.8030 108° East  Level FlightAware Approximate
06:02PM 79.5494 46.5133 109° East  Level FlightAware Approximate
06:03PM 79.5035 47.2176 109° East  Level FlightAware Approximate
06:04PM 79.4560 47.9158 110° East  Level FlightAware Approximate
06:05PM 79.4070 48.6076 111° Southeast  Level FlightAware Approximate
06:06PM 79.3565 49.2931 111° Southeast  Level FlightAware Approximate
06:07PM 79.3046 49.9721 112° Southeast  Level FlightAware Approximate
06:08PM 79.2512 50.6445 113° Southeast  Level FlightAware Approximate
06:09PM 79.1964 51.3102 113° Southeast  Level FlightAware Approximate
06:10PM 79.1401 51.9692 114° Southeast  Level FlightAware Approximate
06:11PM 79.0825 52.6215 115° Southeast  Level FlightAware Approximate
06:12PM 79.0235 53.2669 115° Southeast  Level FlightAware Approximate
06:13PM 78.9632 53.9053 116° Southeast  Level FlightAware Approximate
06:14PM 78.9015 54.5369 117° Southeast  Level FlightAware Approximate
06:15PM 78.8385 55.1615 117° Southeast  Level FlightAware Approximate
06:16PM 78.7743 55.7791 118° Southeast  Level FlightAware Approximate
06:17PM 78.7088 56.3897 118° Southeast  Level FlightAware Approximate
06:18PM 78.6420 56.9932 119° Southeast  Level FlightAware Approximate
06:19PM 78.5741 57.5898 120° Southeast  Level FlightAware Approximate
06:20PM 78.5049 58.1793 120° Southeast  Level FlightAware Approximate
06:21PM 78.4346 58.7618 121° Southeast  Level FlightAware Approximate
06:22PM 78.3632 59.3374 121° Southeast  Level FlightAware Approximate
06:23PM 78.2906 59.9059 122° Southeast  Level FlightAware Approximate
06:24PM 78.2167 60.4688 123° Southeast  Level FlightAware Approximate
06:25PM 78.1417 61.0247 123° Southeast  Level FlightAware Approximate
06:26PM 78.0657 61.5737 124° Southeast  Level FlightAware Approximate
06:27PM 77.9886 62.1158 124° Southeast  Level FlightAware Approximate
06:28PM 77.9105 62.6510 125° Southeast  Level FlightAware Approximate
06:29PM 77.8314 63.1795 125° Southeast  Level FlightAware Approximate
06:30PM 77.7513 63.7011 126° Southeast  Level FlightAware Approximate
06:31PM 77.6702 64.2160 126° Southeast  Level FlightAware Approximate
06:32PM 77.5881 64.7243 127° Southeast  Level FlightAware Approximate
06:33PM 77.5051 65.2260 127° Southeast  Level FlightAware Approximate
06:34PM 77.4212 65.7211 128° Southeast  Level FlightAware Approximate
06:35PM 77.3365 66.2097 128° Southeast  Level FlightAware Approximate
06:36PM 77.2508 66.6919 129° Southeast  Level FlightAware Approximate
06:37PM 77.1643 67.1678 129° Southeast  Level FlightAware Approximate
06:38PM 77.0769 67.6373 130° Southeast  Level FlightAware Approximate
06:39PM 76.9887 68.1006 130° Southeast  Level FlightAware Approximate
06:40PM 76.8997 68.5578 131° Southeast  Level FlightAware Approximate
06:41PM 76.8098 69.0088 131° Southeast  Level FlightAware Approximate
06:42PM 76.7193 69.4539 131° Southeast  Level FlightAware Approximate
06:43PM 76.6279 69.8930 132° Southeast  Level FlightAware Approximate
06:44PM 76.5358 70.3262 132° Southeast  Level FlightAware Approximate
06:45PM 76.4430 70.7536 133° Southeast  Level FlightAware Approximate
06:46PM 76.3494 71.1753 133° Southeast  Level FlightAware Approximate
06:47PM 76.2552 71.5913 134° Southeast  Level FlightAware Approximate
06:48PM 76.1602 72.0018 134° Southeast  Level FlightAware Approximate
06:49PM 76.0646 72.4067 134° Southeast  Level FlightAware Approximate
06:50PM 75.9684 72.8062 135° Southeast  Level FlightAware Approximate
06:51PM 75.8713 73.2009 135° Southeast  Level FlightAware Approximate
06:52PM 75.7737 73.5902 135° Southeast  Level FlightAware Approximate
06:53PM 75.6754 73.9745 136° Southeast  Level FlightAware Approximate
06:54PM 75.5766 74.3538 136° Southeast  Level FlightAware Approximate
06:55PM 75.4771 74.7280 137° Southeast  Level FlightAware Approximate
06:56PM 75.3771 75.0972 137° Southeast  Level FlightAware Approximate
06:57PM 75.2765 75.4614 137° Southeast  Level FlightAware Approximate
06:58PM 75.1754 75.8209 138° Southeast  Level FlightAware Approximate
06:59PM 75.0737 76.1755 138° Southeast  Level FlightAware Approximate
07:00PM 74.9714 76.5255 138° Southeast  Level FlightAware Approximate
07:01PM 74.8687 76.8708 139° Southeast  Level FlightAware Approximate
07:02PM 74.7654 77.2115 139° Southeast  Level FlightAware Approximate
07:03PM 74.6617 77.5474 139° Southeast  Level FlightAware Approximate
07:04PM 74.5575 77.8788 140° Southeast  Level FlightAware Approximate
07:05PM 74.4528 78.2056 140° Southeast  Level FlightAware Approximate
07:06PM 74.3476 78.5281 140° Southeast  Level FlightAware Approximate
07:07PM 74.2420 78.8464 141° Southeast  Level FlightAware Approximate
07:08PM 74.1358 79.1606 141° Southeast  Level FlightAware Approximate
07:09PM 74.0293 79.4707 141° Southeast  Level FlightAware Approximate
07:10PM 73.9223 79.7768 142° Southeast  Level FlightAware Approximate
07:11PM 73.8148 80.0789 142° Southeast  Level FlightAware Approximate
07:12PM 73.7070 80.3772 142° Southeast  Level FlightAware Approximate
07:13PM 73.5987 80.6716 142° Southeast  Level FlightAware Approximate
07:14PM 73.4900 80.9622 143° Southeast  Level FlightAware Approximate
07:15PM 73.3812 81.2485 143° Southeast  Level FlightAware Approximate
07:16PM 73.2720 81.5312 143° Southeast  Level FlightAware Approximate
07:17PM 73.1625 81.8103 144° Southeast  Level FlightAware Approximate
07:18PM 73.0525 82.0858 144° Southeast  Level FlightAware Approximate
07:19PM 72.9422 82.3580 144° Southeast  Level FlightAware Approximate
07:20PM 72.8313 82.6273 144° Southeast  Level FlightAware Approximate
07:21PM 72.7200 82.8933 145° Southeast  Level FlightAware Approximate
07:22PM 72.6083 83.1560 145° Southeast  Level FlightAware Approximate
07:23PM 72.4964 83.4154 145° Southeast  Level FlightAware Approximate
07:24PM 72.3841 83.6717 145° Southeast  Level FlightAware Approximate
07:25PM 72.2714 83.9248 146° Southeast  Level FlightAware Approximate
07:26PM 72.1585 84.1747 146° Southeast  Level FlightAware Approximate
07:27PM 72.0452 84.4217 146° Southeast  Level FlightAware Approximate
07:28PM 71.9316 84.6653 146° Southeast  Level FlightAware Approximate
07:29PM 71.8176 84.9060 147° Southeast  Level FlightAware Approximate
07:30PM 71.7034 85.1437 147° Southeast  Level FlightAware Approximate
07:31PM 71.5889 85.3786 147° Southeast  Level FlightAware Approximate
07:32PM 71.4740 85.6106 147° Southeast  Level FlightAware Approximate
07:33PM 71.3589 85.8399 147° Southeast  Level FlightAware Approximate
07:34PM 71.2434 86.0668 148° Southeast  Level FlightAware Approximate
07:35PM 71.1276 86.2909 148° Southeast  Level FlightAware Approximate
07:36PM 71.0116 86.5125 148° Southeast  Level FlightAware Approximate
07:37PM 70.8953 86.7314 148° Southeast  Level FlightAware Approximate
07:38PM 70.7787 86.9478 149° Southeast  Level FlightAware Approximate
07:39PM 70.6619 87.1617 149° Southeast  Level FlightAware Approximate
07:40PM 70.5448 87.3731 149° Southeast  Level FlightAware Approximate
07:41PM 70.4275 87.5820 149° Southeast  Level FlightAware Approximate
07:42PM 70.3100 87.7886 149° Southeast  Level FlightAware Approximate
07:43PM 70.1922 87.9928 150° Southeast  Level FlightAware Approximate
07:44PM 70.0742 88.1947 150° Southeast  Level FlightAware Approximate
07:45PM 69.9560 88.3943 150° Southeast  Level FlightAware Approximate
07:46PM 69.8375 88.5916 150° Southeast  Level FlightAware Approximate
07:47PM 69.7188 88.7868 150° Southeast  Level FlightAware Approximate
07:48PM 69.6000 88.9798 150° Southeast  Level FlightAware Approximate
07:49PM 69.4809 89.1707 151° Southeast  Level FlightAware Approximate
07:50PM 69.3616 89.3596 151° Southeast  Level FlightAware Approximate
07:51PM 69.2421 89.5464 151° Southeast  Level FlightAware Approximate
07:52PM 69.1225 89.7312 151° Southeast  Level FlightAware Approximate
07:53PM 69.0026 89.9139 151° Southeast  Level FlightAware Approximate
07:54PM 68.8826 90.0947 152° Southeast  Level FlightAware Approximate
07:55PM 68.7623 90.2735 152° Southeast  Level FlightAware Approximate
07:56PM 68.6419 90.4504 152° Southeast  Level FlightAware Approximate
07:57PM 68.5213 90.6254 152° Southeast  Level FlightAware Approximate
07:58PM 68.4005 90.7986 152° Southeast  Level FlightAware Approximate
07:59PM 68.2795 90.9699 152° Southeast  Level FlightAware Approximate
08:00PM 68.1583 91.1394 152° Southeast  Level FlightAware Approximate
08:01PM 68.0370 91.3071 153° Southeast  Level FlightAware Approximate
08:02PM 67.9155 91.4731 153° Southeast  Level FlightAware Approximate
08:03PM 67.7939 91.6373 153° Southeast  Level FlightAware Approximate
08:04PM 67.6721 91.7998 153° Southeast  Level FlightAware Approximate
08:05PM 67.5501 91.9607 153° Southeast  Level FlightAware Approximate
08:06PM 67.4279 92.1199 153° Southeast  Level FlightAware Approximate
08:07PM 67.3057 92.2775 154° Southeast  Level FlightAware Approximate
08:08PM 67.1832 92.4335 154° Southeast  Level FlightAware Approximate
08:09PM 67.0607 92.5880 154° Southeast  Level FlightAware Approximate
08:10PM 66.9379 92.7411 154° Southeast  Level FlightAware Approximate
08:11PM 66.8151 92.8925 154° Southeast  Level FlightAware Approximate
08:12PM 66.6921 93.0425 154° Southeast  Level FlightAware Approximate
08:13PM 66.5689 93.1910 154° Southeast  Level FlightAware Approximate
08:14PM 66.4457 93.3380 155° Southeast  Level FlightAware Approximate
08:15PM 66.3222 93.4835 155° Southeast  Level FlightAware Approximate
08:16PM 66.1987 93.6277 155° Southeast  Level FlightAware Approximate
08:17PM 66.0750 93.7704 155° Southeast  Level FlightAware Approximate
08:18PM 65.9512 93.9118 155° Southeast  Level FlightAware Approximate
08:19PM 65.8272 94.0518 155° Southeast  Level FlightAware Approximate
08:20PM 65.7032 94.1904 155° Southeast  Level FlightAware Approximate
08:21PM 65.5790 94.3277 155° Southeast  Level FlightAware Approximate
08:22PM 65.4547 94.4637 156° South  Level FlightAware Approximate
08:23PM 65.3302 94.5985 156° South  Level FlightAware Approximate
08:24PM 65.2057 94.7319 156° South  Level FlightAware Approximate
08:25PM 65.0810 94.8641 156° South  Level FlightAware Approximate
08:26PM 64.9562 94.9951 156° South  Level FlightAware Approximate
08:27PM 64.8313 95.1249 156° South  Level FlightAware Approximate
08:28PM 64.7063 95.2534 156° South  Level FlightAware Approximate
08:29PM 64.5811 95.3808 156° South  Level FlightAware Approximate
08:30PM 64.4559 95.5070 157° South  Level FlightAware Approximate
08:31PM 64.3306 95.6321 157° South  Level FlightAware Approximate
08:32PM 64.2051 95.7560 157° South  Level FlightAware Approximate
08:33PM 64.0796 95.8788 157° South  Level FlightAware Approximate
08:34PM 63.9539 96.0005 157° South  Level FlightAware Approximate
08:35PM 63.8282 96.1212 157° South  Level FlightAware Approximate
08:36PM 63.7023 96.2407 157° South  Level FlightAware Approximate
08:37PM 63.5763 96.3592 157° South  Level FlightAware Approximate
08:38PM 63.4503 96.4766 157° South  Level FlightAware Approximate
08:39PM 63.3241 96.5931 157° South  Level FlightAware Approximate
08:40PM 63.1979 96.7085 158° South  Level FlightAware Approximate
08:41PM 63.0716 96.8229 158° South  Level FlightAware Approximate
08:42PM 62.9451 96.9363 158° South  Level FlightAware Approximate
08:43PM 62.8186 97.0487 158° South  Level FlightAware Approximate
08:44PM 62.6920 97.1602 158° South  Level FlightAware Approximate
08:45PM 62.5658 97.2703 158° South  Level FlightAware Approximate
08:46PM 62.4394 97.3795 158° South  Level FlightAware Approximate
08:47PM 62.3130 97.4878 158° South  Level FlightAware Approximate
08:48PM 62.1865 97.5951 158° South  Level FlightAware Approximate
08:49PM 62.0600 97.7016 158° South  Level FlightAware Approximate
08:50PM 61.9333 97.8072 159° South  Level FlightAware Approximate
08:51PM 61.8065 97.9119 159° South  Level FlightAware Approximate
08:52PM 61.6797 98.0158 159° South  Level FlightAware Approximate
08:53PM 61.5528 98.1188 159° South  Level FlightAware Approximate
08:54PM 61.4259 98.2210 159° South  Level FlightAware Approximate
08:55PM 61.2988 98.3223 159° South  Level FlightAware Approximate
08:56PM 61.1717 98.4228 159° South  Level FlightAware Approximate
08:57PM 61.0445 98.5225 159° South  Level FlightAware Approximate
08:58PM 60.9172 98.6215 159° South  Level FlightAware Approximate
08:59PM 60.7899 98.7196 159° South  Level FlightAware Approximate
09:00PM 60.6624 98.8169 159° South  Level FlightAware Approximate
09:01PM 60.5350 98.9135 160° South  Level FlightAware Approximate
09:02PM 60.4074 99.0094 160° South  Level FlightAware Approximate
09:03PM 60.2798 99.1044 160° South  Level FlightAware Approximate
09:04PM 60.1521 99.1988 160° South  Level FlightAware Approximate
09:05PM 60.0243 99.2924 160° South  Level FlightAware Approximate
09:06PM 59.8965 99.3853 160° South  Level FlightAware Approximate
09:07PM 59.7686 99.4775 160° South  Level FlightAware Approximate
09:08PM 59.6407 99.5689 160° South  Level FlightAware Approximate
09:09PM 59.5127 99.6597 160° South  Level FlightAware Approximate
09:10PM 59.3846 99.7498 160° South  Level FlightAware Approximate
09:11PM 59.2565 99.8392 160° South  Level FlightAware Approximate
09:12PM 59.1279 99.9282 160° South  Level FlightAware Approximate
09:13PM 58.9994 100.0165 161° South  Level FlightAware Approximate
09:14PM 58.8708 100.1041 161° South  Level FlightAware Approximate
09:15PM 58.7421 100.1911 161° South  Level FlightAware Approximate
09:16PM 58.6133 100.2774 161° South  Level FlightAware Approximate
09:17PM 58.4845 100.3631 161° South  Level FlightAware Approximate
09:18PM 58.3557 100.4482 161° South  Level FlightAware Approximate
09:19PM 58.2268 100.5327 161° South  Level FlightAware Approximate
09:20PM 58.0978 100.6165 161° South  Level FlightAware Approximate
09:21PM 57.9688 100.6998 161° South  Level FlightAware Approximate
09:22PM 57.8397 100.7824 161° South  Level FlightAware Approximate
09:23PM 57.7106 100.8645 161° South  Level FlightAware Approximate
09:24PM 57.5814 100.9459 161° South  Level FlightAware Approximate
09:25PM 57.4522 101.0268 161° South  Level FlightAware Approximate
09:26PM 57.3229 101.1072 161° South  Level FlightAware Approximate
09:27PM 57.1936 101.1869 162° South  Level FlightAware Approximate
09:28PM 57.0642 101.2661 162° South  Level FlightAware Approximate
09:29PM 56.9347 101.3448 162° South  Level FlightAware Approximate
09:30PM 56.8053 101.4229 162° South  Level FlightAware Approximate
09:31PM 56.6757 101.5005 162° South  Level FlightAware Approximate
09:32PM 56.5462 101.5775 162° South  Level FlightAware Approximate
09:33PM 56.4165 101.6541 162° South  Level FlightAware Approximate
09:34PM 56.2897 101.7438 156° South  Level FlightAware Approximate
09:35PM 56.1647 101.8415 156° South  Level FlightAware Approximate
09:36PM 56.0396 101.9386 157° South  Level FlightAware Approximate
09:37PM 55.9144 102.0351 157° South  Level FlightAware Approximate
09:38PM 55.7889 102.1301 157° South  Level FlightAware Approximate
09:39PM 55.6633 102.2245 157° South  Level FlightAware Approximate
09:39PM 54.5179 103.0453 158° South 459 528 37,000  Level FlightAware ADS-B
09:40PM 55.5377 102.3182 157° South  Level FlightAware Approximate
09:40PM 54.4544 103.0902 158° South 459 528 37,000  Level FlightAware ADS-B
09:40PM 54.4431 103.0982 158° South 458 527 37,000  Level FlightAware ADS-B
09:41PM 54.3472 103.1661 158° South 460 529 37,000  Level FlightAware ADS-B
09:42PM 54.2634 103.2255 157° South 461 531 37,000  Level FlightAware ADS-B
09:42PM 54.2429 103.2403 157° South 462 532 37,000  Level FlightAware ADS-B
09:43PM 54.1713 103.2920 157° South 461 531 37,000  Level FlightAware ADS-B
09:43PM 54.0699 103.3644 157° South 462 532 37,000  Level FlightAware ADS-B
09:44PM 54.0079 103.4083 157° South 461 531 37,000  Level FlightAware ADS-B
09:44PM 53.9503 103.4490 157° South 460 529 37,000  Level FlightAware ADS-B
09:45PM 53.8896 103.4918 157° South 458 527 37,000  Level FlightAware ADS-B
09:45PM 53.8524 103.5181 158° South 457 526 37,000  Level FlightAware ADS-B
09:46PM 53.8323 103.5321 157° South 455 524 37,000  Level FlightAware ADS-B
09:46PM 53.7654 103.5790 157° South 454 522 37,000  Level FlightAware ADS-B
09:47PM 53.7089 103.6185 158° South 452 520 37,000  Level FlightAware ADS-B
09:47PM 53.6444 103.6635 158° South 452 520 37,000  Level FlightAware ADS-B
09:48PM 53.5784 103.7093 158° South 452 520 37,000  Level FlightAware ADS-B
09:48PM 53.5108 103.7561 158° South 454 522 37,000  Level FlightAware ADS-B
09:49PM 53.4145 103.8225 158° South 457 526 37,000  Level FlightAware ADS-B
09:49PM 53.4279 103.8133 156° South 457 526 37,000  Level FlightAware ADS-B
09:49PM 53.3688 103.8570 154° Southeast 457 526 37,000  Level FlightAware ADS-B
09:50PM 53.3212 103.8988 151° Southeast 457 526 37,000  Level FlightAware ADS-B
09:50PM 53.2597 103.9559 151° Southeast 457 526 37,000  Level FlightAware ADS-B
09:51PM 53.2006 104.0108 151° Southeast 457 526 37,000  Level FlightAware ADS-B
09:52PM 53.1396 104.0674 151° Southeast 458 527 37,000  Level FlightAware ADS-B
09:52PM 53.0816 104.1208 151° Southeast 461 531 37,000  Level FlightAware ADS-B
09:53PM 53.0031 104.1924 151° Southeast 464 534 37,000  Level FlightAware ADS-B
09:53PM 52.9273 104.2613 151° Southeast 466 536 37,000  Level FlightAware ADS-B
09:54PM 52.9013 104.2850 151° Southeast 465 535 37,000  Level FlightAware ADS-B
09:54PM 52.8410 104.3397 151° Southeast 466 536 37,000  Level FlightAware ADS-B
09:55PM 52.7788 104.3960 151° Southeast 463 533 37,000  Level FlightAware ADS-B
09:55PM 52.7634 104.4108 145° Southeast 464 534 37,000  Level FlightAware ADS-B
09:55PM 52.7287 104.4495 141° Southeast 465 535 37,000  Level FlightAware ADS-B
09:56PM 52.6882 104.5032 139° Southeast 464 534 37,000  Level FlightAware ADS-B
09:56PM 52.6397 104.5723 139° Southeast 464 534 37,000  Level FlightAware ADS-B
09:57PM 52.5882 104.6458 139° Southeast 464 534 37,000  Level FlightAware ADS-B
09:57PM 52.5383 104.7170 140° Southeast 465 535 37,000  Level FlightAware ADS-B
09:58PM 52.4821 104.7936 141° Southeast 467 537 37,000  Level FlightAware ADS-B
09:58PM 52.4009 104.9002 141° Southeast 468 539 37,000  Level FlightAware ADS-B
09:59PM 52.3499 104.9676 141° Southeast 468 539 37,000  Level FlightAware ADS-B
09:59PM 52.2999 105.0334 141° Southeast 467 537 37,000  Level FlightAware ADS-B
10:00PM 52.2497 105.0997 141° Southeast 467 537 37,000  Level FlightAware ADS-B
10:00PM 52.2226 105.1355 141° Southeast 468 539 37,000  Level FlightAware ADS-B
10:01PM 52.1707 105.2038 141° Southeast 470 541 37,000  Level FlightAware ADS-B
10:01PM 52.1216 105.2680 141° Southeast 470 541 37,000  Level FlightAware ADS-B
10:02PM 52.0686 105.3371 146° Southeast 470 541 37,000  Level FlightAware ADS-B
10:02PM 52.0342 105.3769 148° Southeast 470 541 37,000  Level FlightAware ADS-B
10:02PM 52.0257 105.3853 155° Southeast 469 540 37,000  Level FlightAware ADS-B
10:02PM 52.0076 105.4012 157° South 470 541 37,000  Level FlightAware ADS-B
10:03PM 51.9449 105.4454 158° South 468 539 37,000 98 Level FlightAware ADS-B
10:03PM 51.8802 105.4862 159° South 469 540 37,100 98 Climbing FlightAware ADS-B
10:04PM 51.8215 105.5225 159° South 473 544 37,100  Level FlightAware ADS-B
10:04PM 51.7520 105.5657 159° South 473 544 37,100  Level FlightAware ADS-B
10:05PM 51.6911 105.6036 159° South 476 548 37,100  Level FlightAware ADS-B
10:05PM 51.6271 105.6437 159° South 476 548 37,100  Level FlightAware ADS-B
10:06PM 51.5663 105.6815 159° South 475 547 37,100  Level FlightAware ADS-B
10:07PM 51.5040 105.7201 159° South 474 545 37,100  Level FlightAware ADS-B
10:07PM 51.4367 105.7617 159° South 475 547 37,100  Level FlightAware ADS-B
10:08PM 51.3737 105.8008 159° South 476 548 37,100  Level FlightAware ADS-B
10:08PM 51.2995 105.8465 159° South 475 547 37,100  Level FlightAware ADS-B
10:09PM 51.2373 105.8846 159° South 475 547 37,100  Level FlightAware ADS-B
10:09PM 51.1753 105.9225 159° South 474 545 37,100  Level FlightAware ADS-B
10:10PM 51.1155 105.9588 159° South 474 545 37,100  Level FlightAware ADS-B
10:12PM 50.8917 106.1089 159° South  Level FlightAware Approximate
10:13PM 50.7646 106.1865 159° South  Level FlightAware Approximate
10:14PM 50.6375 106.2637 159° South  Level FlightAware Approximate
10:15PM 50.5108 106.3403 159° South  Level FlightAware Approximate
10:16PM 50.3841 106.4164 159° South  Level FlightAware Approximate
10:17PM 50.2659 106.5144 138° Southeast  Level FlightAware Approximate
10:18PM 50.1642 106.6562 138° Southeast  Level FlightAware Approximate
10:19PM 50.0624 106.7975 138° Southeast  Level FlightAware Approximate
10:20PM 49.9603 106.9382 138° Southeast  Level FlightAware Approximate
10:21PM 49.8581 107.0783 139° Southeast  Level FlightAware Approximate
10:22PM 49.7557 107.2178 139° Southeast  Level FlightAware Approximate
10:23PM 49.6531 107.3567 139° Southeast  Level FlightAware Approximate
10:24PM 49.5508 107.4958 138° Southeast  Level FlightAware Approximate
10:25PM 49.4485 107.6345 139° Southeast  Level FlightAware Approximate
10:26PM 49.3460 107.7727 139° Southeast  Level FlightAware Approximate
10:27PM 49.2434 107.9103 139° Southeast  Level FlightAware Approximate
10:28PM 49.1406 108.0473 139° Southeast  Level FlightAware Approximate
10:29PM 49.0376 108.1837 139° Southeast  Level FlightAware Approximate
10:30PM 48.9345 108.3196 139° Southeast  Level FlightAware Approximate
10:31PM 48.8312 108.4550 139° Southeast  Level FlightAware Approximate
10:32PM 48.7277 108.5897 139° Southeast  Level FlightAware Approximate
10:33PM 48.6241 108.7240 139° Southeast  Level FlightAware Approximate
10:34PM 48.5204 108.8576 140° Southeast  Level FlightAware Approximate
10:35PM 48.4165 108.9907 140° Southeast  Level FlightAware Approximate
10:36PM 48.3124 109.1233 140° Southeast  Level FlightAware Approximate
10:37PM 48.2082 109.2553 140° Southeast  Level FlightAware Approximate
10:38PM 48.1038 109.3868 140° Southeast  Level FlightAware Approximate
10:39PM 47.9993 109.5178 140° Southeast  Level FlightAware Approximate
10:40PM 47.8946 109.6482 140° Southeast  Level FlightAware Approximate
10:41PM 47.7898 109.7782 140° Southeast  Level FlightAware Approximate
10:42PM 47.6848 109.9075 140° Southeast  Level FlightAware Approximate
10:43PM 47.5797 110.0364 140° Southeast  Level FlightAware Approximate
10:44PM 47.4745 110.1647 140° Southeast  Level FlightAware Approximate
10:45PM 47.3691 110.2926 141° Southeast  Level FlightAware Approximate
10:46PM 47.2635 110.4199 141° Southeast  Level FlightAware Approximate
10:47PM 47.1579 110.5467 141° Southeast  Level FlightAware Approximate
10:48PM 47.0521 110.6730 141° Southeast  Level FlightAware Approximate
10:49PM 46.9461 110.7989 141° Southeast  Level FlightAware Approximate
10:50PM 46.8400 110.9242 141° Southeast  Level FlightAware Approximate
10:51PM 46.7338 111.0490 141° Southeast  Level FlightAware Approximate
10:52PM 46.6274 111.1733 141° Southeast  Level FlightAware Approximate
10:53PM 46.5209 111.2972 141° Southeast  Level FlightAware Approximate
10:54PM 46.4143 111.4205 141° Southeast  Level FlightAware Approximate
10:55PM 46.3075 111.5434 141° Southeast  Level FlightAware Approximate
10:56PM 46.2007 111.6658 142° Southeast  Level FlightAware Approximate
10:57PM 46.0936 111.7877 142° Southeast  Level FlightAware Approximate
10:58PM 45.9865 111.9092 142° Southeast  Level FlightAware Approximate
10:59PM 45.8792 112.0302 142° Southeast  Level FlightAware Approximate
11:00PM 45.7718 112.1507 142° Southeast  Level FlightAware Approximate
11:01PM 45.6643 112.2707 142° Southeast  Level FlightAware Approximate
11:02PM 45.5566 112.3903 142° Southeast  Level FlightAware Approximate
11:03PM 45.4488 112.5094 142° Southeast  Level FlightAware Approximate
11:04PM 45.3409 112.6281 142° Southeast  Level FlightAware Approximate
11:05PM 45.2329 112.7463 142° Southeast  Level FlightAware Approximate
11:06PM 45.1247 112.8641 142° Southeast  Level FlightAware Approximate
11:07PM 45.0165 112.9815 143° Southeast  Level FlightAware Approximate
11:08PM 44.9081 113.0983 143° Southeast  Level FlightAware Approximate
11:09PM 44.7996 113.2148 143° Southeast  Level FlightAware Approximate
11:10PM 44.6854 113.3194 149° Southeast  Level FlightAware Approximate
11:11PM 44.5688 113.4185 149° Southeast  Level FlightAware Approximate
11:12PM 44.4521 113.5173 149° Southeast  Level FlightAware Approximate
11:13PM 44.3353 113.6157 149° Southeast  Level FlightAware Approximate
11:14PM 44.2184 113.7137 149° Southeast  Level FlightAware Approximate
11:15PM 44.1014 113.8114 149° Southeast  Level FlightAware Approximate
11:16PM 43.9843 113.9086 149° Southeast  Level FlightAware Approximate
11:17PM 43.8672 114.0054 149° Southeast  Level FlightAware Approximate
11:18PM 43.7499 114.1018 149° Southeast  Level FlightAware Approximate
11:19PM 43.6325 114.1977 149° Southeast  Level FlightAware Approximate
11:20PM 43.5151 114.2933 149° Southeast  Level FlightAware Approximate
11:21PM 43.3976 114.3885 150° Southeast  Level FlightAware Approximate
11:22PM 43.2799 114.4833 150° Southeast  Level FlightAware Approximate
11:23PM 43.1623 114.5778 150° Southeast  Level FlightAware Approximate
11:24PM 43.0445 114.6719 150° Southeast  Level FlightAware Approximate
11:25PM 42.9267 114.7656 150° Southeast  Level FlightAware Approximate
11:26PM 42.8090 114.8593 150° Southeast  Level FlightAware Approximate
11:27PM 42.6914 114.9528 150° Southeast  Level FlightAware Approximate
11:28PM 42.5737 115.0459 150° Southeast  Level FlightAware Approximate
11:29PM 42.4560 115.1387 150° Southeast  Level FlightAware Approximate
11:30PM 42.3382 115.2311 150° Southeast  Level FlightAware Approximate
11:31PM 42.2201 115.3229 150° Southeast  Level FlightAware Approximate
11:32PM 42.1017 115.4135 150° Southeast  Level FlightAware Approximate
11:33PM 41.9831 115.5038 150° Southeast  Level FlightAware Approximate
11:34PM 41.8645 115.5937 151° Southeast  Level FlightAware Approximate
11:35PM 41.7458 115.6833 151° Southeast  Level FlightAware Approximate
11:36PM 41.6271 115.7726 151° Southeast  Level FlightAware Approximate
11:37PM 41.5083 115.8616 151° Southeast  Level FlightAware Approximate
11:37PM 41.6117 116.2005 138° Southeast 509 586 37,100  Level FlightAware ADS-B
11:37PM 41.5688 116.2503 139° Southeast 508 585 37,100  Level FlightAware ADS-B
11:38PM 41.5378 116.2858 139° Southeast 508 585 37,100  Level FlightAware ADS-B
11:38PM 41.4521 116.3826 139° Southeast 507 583 37,100  Level FlightAware ADS-B
11:39PM 41.4119 116.4276 139° Southeast 506 582 37,100  Level FlightAware ADS-B
11:39PM 41.3373 116.5111 139° Southeast 509 586 37,100  Level FlightAware ADS-B
11:40PM 41.2794 116.5753 140° Southeast 509 586 37,100  Level FlightAware ADS-B
11:40PM 41.2426 116.6055 154° Southeast 485 558 37,100  Level FlightAware ADS-B
11:41PM 41.1888 116.6297 168° South 462 532 37,100  Level FlightAware ADS-B
11:41PM 41.1036 116.6433 173° South 450 518 37,100  Level FlightAware ADS-B
11:42PM 41.0502 116.6507 174° South 448 516 37,100  Level FlightAware ADS-B
11:42PM 40.9838 116.6594 174° South 447 514 37,100  Level FlightAware ADS-B
11:43PM 40.9203 116.6681 174° South 447 514 37,100  Level FlightAware ADS-B
11:43PM 40.8578 116.6766 173° South 448 516 37,100  Level FlightAware ADS-B
11:44PM 40.7959 116.6852 173° South 448 516 37,100  Level FlightAware ADS-B
11:44PM 40.7348 116.6937 174° South 448 516 37,100  Level FlightAware ADS-B
11:45PM 40.6708 116.7023 174° South 447 514 37,100  Level FlightAware ADS-B
11:45PM 40.6100 116.7106 173° South 448 516 37,100  Level FlightAware ADS-B
11:46PM 40.5471 116.7191 174° South 449 517 37,100  Level FlightAware ADS-B
11:46PM 40.4863 116.7274 173° South 449 517 37,100  Level FlightAware ADS-B
11:47PM 40.4236 116.7358 174° South 449 517 37,100  Level FlightAware ADS-B
11:47PM 40.3609 116.7437 175° South 447 514 37,100  Level FlightAware ADS-B
11:48PM 40.3012 116.7432 185° South 435 501 37,100  Level FlightAware ADS-B
11:48PM 40.2218 116.7313 187° South 432 497 37,100  Level FlightAware ADS-B
11:49PM 40.1609 116.7217 188° South 432 497 37,100  Level FlightAware ADS-B
11:49PM 40.1015 116.7122 187° South 433 498 37,100  Level FlightAware ADS-B
11:50PM 40.0422 116.7029 187° South 433 498 37,100  Level FlightAware ADS-B
11:50PM 39.9841 116.6938 187° South 433 498 37,100  Level FlightAware ADS-B
11:51PM 39.9230 116.6843 187° South 434 499 37,100  Level FlightAware ADS-B
11:51PM 39.8640 116.6751 187° South 432 497 37,100  Level FlightAware ADS-B
11:52PM 39.8044 116.6658 187° South 432 497 37,100  Level FlightAware ADS-B
11:52PM 39.7437 116.6564 187° South 432 497 37,100  Level FlightAware ADS-B
11:53PM 39.6848 116.6472 187° South 433 498 37,100  Level FlightAware ADS-B
11:53PM 39.6251 116.6379 187° South 433 498 37,100  Level FlightAware ADS-B
11:54PM 39.5651 116.6287 187° South 435 501 37,100  Level FlightAware ADS-B
11:54PM 39.5050 116.6193 187° South 435 501 37,100  Level FlightAware ADS-B
11:55PM 39.4465 116.6103 187° South 437 503 37,100  Level FlightAware ADS-B
11:56PM 39.3458 116.5950 187° South 438 504 37,100  Level FlightAware ADS-B
11:56PM 39.3046 116.5886 187° South 437 503 37,100  Level FlightAware ADS-B
11:56PM 39.2821 116.5851 187° South 437 503 37,100  Level FlightAware ADS-B
11:57PM 39.2139 116.5751 187° South 438 504 37,100  Level FlightAware ADS-B
11:57PM 39.1789 116.5724 187° South 438 504 37,100  Level FlightAware ADS-B
11:59PM 39.0177 116.5724 180° South 450 518 37,100  Level FlightAware ADS-B
11:59PM 38.9124 116.5731 180° South 452 520 37,100  Level FlightAware ADS-B
12:00AM 38.8334 116.5734 180° South 452 520 37,100  Level FlightAware ADS-B
12:01AM 38.7458 116.5739 180° South 452 520 37,100  Level FlightAware ADS-B
12:05AM 38.2180 116.5762 180° South 458 527 37,100 171 Level FlightAware ADS-B
12:12AM 37.2834 116.9771 164° South 463 533 39,100 248 Climbing FlightAware ADS-B
12:13AM 37.2192 116.9988 164° South 464 534 39,100  Level FlightAware ADS-B
12:13AM 37.1530 117.0213 164° South 464 534 39,100  Level FlightAware ADS-B
12:14AM 37.0671 117.0505 164° South 465 535 39,100  Level FlightAware ADS-B
12:15AM 36.9647 117.0852 164° South 465 535 39,100  Level FlightAware ADS-B
12:15AM 36.9348 117.0953 164° South 465 535 39,100  Level FlightAware ADS-B
12:16AM 36.8428 117.1263 164° South 465 535 39,100  Level FlightAware ADS-B
12:16AM 36.7827 117.1465 164° South 465 535 39,100  Level FlightAware ADS-B
12:17AM 36.6596 117.1878 164° South 465 535 39,100  Level FlightAware ADS-B
12:18AM 36.5992 117.2080 164° South 465 535 39,100  Level FlightAware ADS-B
12:18AM 36.5314 117.2306 164° South 465 535 39,100  Level FlightAware ADS-B
12:19AM 36.4051 117.2727 164° South 465 535 39,100  Level FlightAware ADS-B
12:20AM 36.2872 117.3118 165° South 463 533 39,100  Level FlightAware ADS-B
12:21AM 36.1558 117.3553 164° South 462 532 39,100  Level FlightAware ADS-B
12:22AM 36.0942 117.3756 165° South 462 532 39,100  Level FlightAware ADS-B
12:22AM 36.0315 117.3961 165° South 463 533 39,100  Level FlightAware ADS-B
12:23AM 35.9725 117.4155 165° South 466 536 39,100  Level FlightAware ADS-B
12:23AM 35.8864 117.4438 164° South 470 541 39,100  Level FlightAware ADS-B
12:24AM 35.8412 117.4587 164° South 470 541 39,100  Level FlightAware ADS-B
12:25AM 35.6762 117.5126 165° South 471 542 39,100  Level FlightAware ADS-B
12:26AM 35.5264 117.5614 164° South 475 547 39,100  Level FlightAware ADS-B
12:27AM 35.4640 117.5817 165° South 474 545 39,100  Level FlightAware ADS-B
12:27AM 35.4019 117.6019 165° South 475 547 39,100  Level FlightAware ADS-B
12:28AM 35.3785 117.6095 165° South 475 547 39,100  Level FlightAware ADS-B
12:28AM 35.2961 117.6360 165° South 477 549 39,100  Level FlightAware ADS-B
12:29AM 35.2076 117.6646 165° South 477 549 39,100  Level FlightAware ADS-B
12:29AM 35.1599 117.6799 165° South 477 549 39,100  Level FlightAware ADS-B
12:30AM 35.0911 117.7020 165° South 476 548 39,100  Level FlightAware ADS-B
12:30AM 35.0140 117.7268 165° South 477 549 39,100  Level FlightAware ADS-B
12:31AM 34.8853 117.7679 165° South 479 551 39,100  Level FlightAware ADS-B
12:32AM 34.8690 117.7732 165° South 479 551 39,100  Level FlightAware ADS-B
12:35AM 34.4875 117.9140 165° South 479 551 39,100  Level FlightAware ADS-B
12:35AM 34.3480 117.9656 162° South 487 560 39,100  Level FlightAware ADS-B
12:37AM 34.2095 118.0164 163° South 486 559 39,100  Level FlightAware ADS-B
12:37AM 34.1533 118.0369 163° South 484 557 39,100 -876 Level FlightAware ADS-B
01:06AM 31.3731 121.0398 109° East 398 458 13,700 -905 Descending FlightAware ADS-B (ZSSS / SHA)
01:06AM 31.3504 121.1014 121° Southeast 387 445 12,800 -1,920 Descending FlightAware ADS-B (ZSSS / SHA)
01:06AM 31.3288 121.1328 134° Southeast 381 438 12,100 -857 Descending FlightAware ADS-B (ZSSS / SHA)
01:07AM 31.2636 121.2006 139° Southeast 366 421 11,800 -525 Descending FlightAware ADS-B (ZSSS / SHA)
01:08AM 31.2256 121.2383 139° Southeast 366 421 11,400 -1,017 Descending FlightAware ADS-B (ZSSS / SHA)
01:08AM 31.1879 121.2763 138° Southeast 364 419 10,800 -1,100 Descending FlightAware ADS-B (ZSSS / SHA)
01:09AM 31.1490 121.3164 138° Southeast 349 402 10,300 -824 Descending FlightAware ADS-B (ZSSS / SHA)
01:09AM 31.1283 121.3414 126° Southeast 337 388 10,100 -686 Descending FlightAware ADS-B (ZSSS / SHA)
01:09AM 31.1164 121.3636 117° Southeast 329 379 9,900 -600 Descending FlightAware ADS-B (ZSSS / SHA)
01:10AM 31.1070 121.3884 112° Southeast 318 366 9,800 -343 Descending FlightAware ADS-B (ZSSS / SHA)
01:10AM 31.0959 121.4194 112° Southeast 315 362 9,700 -667 Descending FlightAware ADS-B (ZSSS / SHA)
01:10AM 31.0868 121.4445 112° Southeast 315 362 9,400 -1,355 Descending FlightAware ADS-B (ZSSS / SHA)
01:10AM 31.0785 121.4672 113° Southeast 315 362 9,000 -1,459 Descending FlightAware ADS-B (ZSSS / SHA)
01:11AM 31.0652 121.5029 113° Southeast 314 361 8,500 -1,421 Descending FlightAware ADS-B (ZSSS / SHA)
01:11AM 31.0560 121.5276 113° Southeast 314 361 8,100 -1,161 Descending FlightAware ADS-B (ZSSS / SHA)
01:11AM 31.0480 121.5499 112° Southeast 311 358 7,900 -1,125 Descending FlightAware ADS-B (ZSSS / SHA)
01:12AM 31.0382 121.5774 112° Southeast 311 358 7,500 -1,412 Descending FlightAware ADS-B (ZSSS / SHA)
01:14AM 31.1428 121.7924 60° Northeast  Level Estimated
01:15AM 31.1428 121.7924 115° Southeast  Level Estimated
01:16AM 31.1428 121.7924 115° Southeast  Level Estimated
01:17AM 31.1428 121.7924 115° Southeast  Level Estimated
01:18AM 31.1428 121.7924 115° Southeast  Level Estimated
01:19AM 31.1428 121.7924 115° Southeast  Level Estimated
01:20AM 31.1428 121.7924 115° Southeast  Level Estimated
01:21AM 31.1428 121.7924 115° Southeast  Level Estimated
01:22AM 31.1428 121.7924 115° Southeast  Level Estimated
01:23AM 31.1428 121.7924 115° Southeast  Level Estimated
01:24AM 31.1428 121.7924 115° Southeast  Level Estimated
01:25AM 31.1428 121.7924 115° Southeast  Level Estimated
01:26AM 31.1428 121.7924 115° Southeast  Level Estimated
01:27AM 31.1428 121.7924 115° Southeast  Level Estimated